createdAt,value
2022-08-19T00:02:50.001Z,8.60
2022-08-19T00:05:52.711Z,8.63
2022-08-19T00:08:55.182Z,8.35
2022-08-19T00:11:58.820Z,8.68
2022-08-19T00:15:01.088Z,8.45
2022-08-19T00:18:03.412Z,8.47
2022-08-19T00:21:09.738Z,9.10
2022-08-19T00:24:14.480Z,9.38
2022-08-19T00:27:25.561Z,8.60
2022-08-19T00:30:29.479Z,9.23
2022-08-19T00:33:35.002Z,8.97
2022-08-19T00:36:38.016Z,9.23
2022-08-19T00:39:40.221Z,8.85
2022-08-19T00:42:42.949Z,9.68
2022-08-19T00:45:46.779Z,9.13
2022-08-19T00:48:48.976Z,9.23
2022-08-19T00:51:53.646Z,9.17
2022-08-19T00:54:58.021Z,9.63
2022-08-19T00:58:10.191Z,9.68
2022-08-19T01:01:13.292Z,9.50
2022-08-19T01:04:16.465Z,9.67
2022-08-19T01:07:20.068Z,9.10
2022-08-19T01:10:26.548Z,9.20
2022-08-19T01:13:44.530Z,9.63
2022-08-19T01:16:58.120Z,9.50
2022-08-19T01:20:01.627Z,9.17
2022-08-19T01:23:05.133Z,8.87
2022-08-19T01:26:08.143Z,9.55
2022-08-19T01:29:11.727Z,9.52
2022-08-19T01:32:33.198Z,9.63
2022-08-19T01:35:36.683Z,9.43
2022-08-19T01:38:44.514Z,9.17
2022-08-19T01:41:47.787Z,9.35
2022-08-19T01:44:49.993Z,9.98
2022-08-19T01:48:01.556Z,9.35
2022-08-19T01:51:04.730Z,9.07
2022-08-19T01:54:09.224Z,9.07
2022-08-19T01:57:14.437Z,9.60
2022-08-19T02:00:20.500Z,10.18
2022-08-19T02:03:24.312Z,9.43
2022-08-19T02:06:27.819Z,9.70
2022-08-19T02:09:32.651Z,9.40
2022-08-19T02:12:35.645Z,9.63
2022-08-19T02:15:41.193Z,9.32
2022-08-19T02:18:44.188Z,9.30
2022-08-19T02:21:46.568Z,9.53
2022-08-19T02:24:49.008Z,9.50
2022-08-19T02:27:53.106Z,9.43
2022-08-19T02:30:56.809Z,10.15
2022-08-19T02:33:59.147Z,9.95
2022-08-19T02:37:03.738Z,9.77
2022-08-19T02:40:12.332Z,10.47
2022-08-19T02:43:14.970Z,9.50
2022-08-19T02:46:22.050Z,10.05
2022-08-19T02:49:24.664Z,9.80
2022-08-19T02:52:28.403Z,9.97
2022-08-19T02:55:31.164Z,9.53
2022-08-19T02:58:49.720Z,10.23
2022-08-19T03:01:54.371Z,9.65
2022-08-19T03:04:56.573Z,9.80
2022-08-19T03:07:58.780Z,9.63
2022-08-19T03:11:01.003Z,9.87
2022-08-19T03:14:04.676Z,9.93
2022-08-19T03:17:07.431Z,9.38
2022-08-19T03:20:10.018Z,9.23
2022-08-19T03:23:16.297Z,9.70
2022-08-19T03:26:18.534Z,9.63
2022-08-19T03:29:30.341Z,9.55
2022-08-19T03:32:33.436Z,9.40
2022-08-19T03:35:37.732Z,9.75
2022-08-19T03:38:44.969Z,8.87
2022-08-19T03:41:50.027Z,9.47
2022-08-19T03:45:12.258Z,9.45
2022-08-19T03:48:14.477Z,10.07
2022-08-19T03:51:20.670Z,10.35
2022-08-19T03:54:33.129Z,10.27
2022-08-19T03:57:35.697Z,10.17
2022-08-19T04:00:38.329Z,9.82
2022-08-19T04:03:41.336Z,9.93
2022-08-19T04:06:44.490Z,9.30
2022-08-19T04:09:46.758Z,9.53
2022-08-19T04:12:48.962Z,9.63
2022-08-19T04:15:51.192Z,8.82
2022-08-19T04:18:53.377Z,9.70
2022-08-19T04:21:56.355Z,9.15
2022-08-19T04:24:58.567Z,9.30
2022-08-19T04:28:01.458Z,9.27
2022-08-19T04:31:04.552Z,9.68
2022-08-19T04:34:09.492Z,9.73
2022-08-19T04:37:14.014Z,9.45
2022-08-19T04:40:37.595Z,9.10
2022-08-19T04:43:40.696Z,9.50
2022-08-19T04:46:51.188Z,9.65
2022-08-19T04:49:54.857Z,9.07
2022-08-19T04:53:00.714Z,9.32
2022-08-19T04:56:09.040Z,9.43
2022-08-19T04:59:12.124Z,9.67
2022-08-19T05:02:15.223Z,10.27
2022-08-19T05:05:18.625Z,9.82
2022-08-19T05:08:31.340Z,9.35
2022-08-19T05:11:40.365Z,8.97
2022-08-19T05:14:43.569Z,8.73
2022-08-19T05:18:06.632Z,8.50
2022-08-19T05:21:31.235Z,8.68
2022-08-19T05:24:41.334Z,8.30
2022-08-19T05:27:53.671Z,8.73
2022-08-19T05:30:56.582Z,8.43
2022-08-19T05:33:59.601Z,8.30
2022-08-19T05:37:02.836Z,8.63
2022-08-19T05:40:05.470Z,8.18
2022-08-19T05:43:09.290Z,8.40
2022-08-19T05:46:19.180Z,8.40
2022-08-19T05:49:30.387Z,8.40
2022-08-19T05:52:33.576Z,7.78
2022-08-19T05:55:36.348Z,7.50
2022-08-19T05:58:39.146Z,7.83
2022-08-19T06:01:43.443Z,7.70
2022-08-19T06:04:45.711Z,7.45
2022-08-19T06:07:48.068Z,7.20
2022-08-19T06:10:50.307Z,7.55
2022-08-19T06:13:59.363Z,7.60
2022-08-19T06:17:06.757Z,7.40
2022-08-19T06:20:13.013Z,7.85
2022-08-19T06:23:16.170Z,7.45
2022-08-19T06:26:20.610Z,7.47
2022-08-19T06:29:25.998Z,7.57
2022-08-19T06:32:28.238Z,7.37
2022-08-19T06:35:30.619Z,7.35
2022-08-19T06:38:34.480Z,7.35
2022-08-19T06:41:45.835Z,7.18
2022-08-19T06:44:53.707Z,7.20
2022-08-19T06:47:57.102Z,7.10
2022-08-19T06:50:59.372Z,7.00
2022-08-19T06:54:03.892Z,6.97
2022-08-19T06:57:07.838Z,6.78
2022-08-19T07:00:14.884Z,6.97
2022-08-19T07:03:18.025Z,7.47
2022-08-19T07:09:45.555Z,6.90
2022-08-19T07:13:00.639Z,7.38
2022-08-19T07:16:14.854Z,7.17
2022-08-19T07:19:32.729Z,7.17
2022-08-19T07:22:36.650Z,7.43
2022-08-19T07:25:40.644Z,7.20
2022-08-19T07:28:51.453Z,7.22
2022-08-19T07:31:57.425Z,6.83
2022-08-19T07:35:04.310Z,6.70
2022-08-19T07:38:06.932Z,6.75
2022-08-19T07:41:14.272Z,6.88
2022-08-19T07:44:16.840Z,6.57
2022-08-19T07:47:48.255Z,6.50
2022-08-19T07:50:41.746Z,6.77
2022-08-19T07:53:45.877Z,6.45
2022-08-19T07:56:48.096Z,6.15
2022-08-19T07:59:50.917Z,6.30
2022-08-19T08:02:55.741Z,5.83
2022-08-19T08:06:16.937Z,6.27
2022-08-19T08:09:24.464Z,5.88
2022-08-19T08:12:35.149Z,6.15
2022-08-19T08:15:42.876Z,6.03
2022-08-19T08:18:50.510Z,5.83
2022-08-19T08:22:00.282Z,5.83
2022-08-19T08:25:09.265Z,5.80
2022-08-19T08:28:17.693Z,5.90
2022-08-19T08:31:21.143Z,5.68
2022-08-19T08:34:23.549Z,6.17
2022-08-19T08:37:26.497Z,5.80
2022-08-19T08:40:41.670Z,6.18
2022-08-19T08:43:48.252Z,6.10
2022-08-19T08:46:55.337Z,6.03
2022-08-19T08:50:07.339Z,6.10
2022-08-19T08:53:12.584Z,5.20
2022-08-19T08:56:17.030Z,5.57
2022-08-19T08:59:42.732Z,5.65
2022-08-19T09:02:50.410Z,5.88
2022-08-19T09:06:12.018Z,5.53
2022-08-19T09:09:21.541Z,5.67
2022-08-19T09:12:39.334Z,5.80
2022-08-19T09:15:49.477Z,5.30
2022-08-19T09:18:54.584Z,5.40
2022-08-19T09:21:57.044Z,5.47
2022-08-19T09:24:59.538Z,5.60
2022-08-19T09:28:22.488Z,5.50
2022-08-19T09:31:30.577Z,5.45
2022-08-19T09:34:37.998Z,4.88
2022-08-19T09:37:46.226Z,5.33
2022-08-19T09:40:50.107Z,5.20
2022-08-19T09:43:56.975Z,5.30
2022-08-19T09:46:59.125Z,4.90
2022-08-19T09:50:01.979Z,5.40
2022-08-19T09:53:05.059Z,5.53
2022-08-19T09:56:10.186Z,5.23
2022-08-19T09:59:13.485Z,5.50
2022-08-19T10:02:16.579Z,5.38
2022-08-19T10:05:44.456Z,5.35
2022-08-19T10:08:50.022Z,5.57
2022-08-19T10:11:54.530Z,5.50
2022-08-19T10:14:58.034Z,5.70
2022-08-19T10:18:01.135Z,5.60
2022-08-19T10:21:11.860Z,5.63
2022-08-19T10:24:14.371Z,5.83
2022-08-19T10:27:20.834Z,6.03
2022-08-19T10:30:23.207Z,5.50
2022-08-19T10:33:40.945Z,5.82
2022-08-19T10:36:56.094Z,6.05
2022-08-19T10:39:59.124Z,5.87
2022-08-19T10:43:01.362Z,6.03
2022-08-19T10:46:04.867Z,5.40
2022-08-19T10:49:12.582Z,5.55
2022-08-19T10:52:33.108Z,6.03
2022-08-19T10:55:54.708Z,5.70
2022-08-19T10:59:00.052Z,5.77
2022-08-19T11:02:04.817Z,5.70
2022-08-19T11:05:12.680Z,5.78
2022-08-19T11:08:23.894Z,5.78
2022-08-19T11:11:27.177Z,5.70
2022-08-19T11:14:32.150Z,5.77
2022-08-19T11:17:37.003Z,5.72
2022-08-19T11:20:40.015Z,5.72
2022-08-19T11:23:43.107Z,5.57
2022-08-19T11:26:46.713Z,5.83
2022-08-19T11:29:49.809Z,5.33
2022-08-19T11:32:53.115Z,5.72
2022-08-19T11:35:59.989Z,5.00
2022-08-19T11:39:04.620Z,5.40
2022-08-19T11:42:27.919Z,5.27
2022-08-19T11:45:31.226Z,5.10
2022-08-19T11:48:33.606Z,5.20
2022-08-19T11:51:36.323Z,4.90
2022-08-19T11:54:41.045Z,5.30
2022-08-19T11:57:44.619Z,5.30
2022-08-19T12:00:46.995Z,5.07
2022-08-19T12:03:51.317Z,5.05
2022-08-19T12:06:54.073Z,4.82
2022-08-19T12:09:56.307Z,5.55
2022-08-19T12:12:58.858Z,6.10
2022-08-19T12:16:03.468Z,6.73
2022-08-19T12:19:06.565Z,5.97
2022-08-19T12:22:10.037Z,6.93
2022-08-19T12:25:13.165Z,6.32
2022-08-19T12:28:16.097Z,6.47
2022-08-19T12:31:20.496Z,6.13
2022-08-19T12:34:22.932Z,6.47
2022-08-19T12:37:28.703Z,6.45
2022-08-19T12:40:33.839Z,5.97
2022-08-19T12:43:36.064Z,6.03
2022-08-19T12:46:38.245Z,5.40
2022-08-19T12:49:53.365Z,5.32
2022-08-19T12:52:59.152Z,5.15
2022-08-19T12:56:01.500Z,5.40
2022-08-19T12:59:05.028Z,5.20
2022-08-19T13:02:08.443Z,5.40
2022-08-19T13:05:14.681Z,5.20
2022-08-19T13:08:18.293Z,5.65
2022-08-19T13:11:21.985Z,6.10
2022-08-19T13:14:24.189Z,5.50
2022-08-19T13:17:26.577Z,6.20
2022-08-19T13:20:29.121Z,6.80
2022-08-19T13:23:31.849Z,8.07
2022-08-19T13:26:34.075Z,7.68
2022-08-19T13:29:54.848Z,7.60
2022-08-19T13:33:17.304Z,7.73
2022-08-19T13:36:19.516Z,8.07
2022-08-19T13:39:23.993Z,8.32
2022-08-19T13:42:26.268Z,9.82
2022-08-19T13:45:30.514Z,9.97
2022-08-19T13:48:33.285Z,11.10
2022-08-19T13:51:35.876Z,11.05
2022-08-19T13:54:38.071Z,12.15
2022-08-19T13:57:40.337Z,12.20
2022-08-19T14:00:46.212Z,11.33
2022-08-19T14:03:48.890Z,12.23
2022-08-19T14:06:51.041Z,11.38
2022-08-19T14:09:53.204Z,12.02
2022-08-19T14:12:57.156Z,13.40
2022-08-19T14:15:59.356Z,6.53
2022-08-19T14:19:01.978Z,6.80
2022-08-19T14:22:04.567Z,8.23
2022-08-19T14:25:14.741Z,7.13
2022-08-19T14:28:18.843Z,6.10
2022-08-19T14:31:22.411Z,5.43
2022-08-19T14:34:25.173Z,5.20
2022-08-19T14:37:28.161Z,5.20
2022-08-19T14:40:33.713Z,5.53
2022-08-19T14:43:36.806Z,4.90
2022-08-19T14:46:40.313Z,4.50
2022-08-19T14:49:52.420Z,4.90
2022-08-19T14:53:11.884Z,4.70
2022-08-19T14:56:17.551Z,4.55
2022-08-19T14:59:21.150Z,4.57
2022-08-19T15:02:34.852Z,4.40
2022-08-19T15:05:38.405Z,4.30
2022-08-19T15:08:42.721Z,4.10
2022-08-19T15:11:45.166Z,3.95
2022-08-19T15:14:51.131Z,3.70
2022-08-19T15:17:57.443Z,4.10
2022-08-19T15:21:00.710Z,3.77
2022-08-19T15:24:03.612Z,3.47
2022-08-19T15:27:06.922Z,3.40
2022-08-19T15:30:10.633Z,3.33
2022-08-19T15:33:20.760Z,3.20
2022-08-19T15:36:24.384Z,3.20
2022-08-19T15:39:26.779Z,2.88
2022-08-19T15:42:29.932Z,2.78
2022-08-19T15:45:33.043Z,2.70
2022-08-19T15:48:35.266Z,3.03
2022-08-19T15:51:39.388Z,3.10
2022-08-19T15:54:41.646Z,2.50
2022-08-19T15:58:02.506Z,2.70
2022-08-19T16:01:26.870Z,2.65
2022-08-19T16:04:48.032Z,2.50
2022-08-19T16:07:51.054Z,2.43
2022-08-19T16:10:55.078Z,2.30
2022-08-19T16:13:59.175Z,2.45
2022-08-19T16:17:01.984Z,2.30
2022-08-19T16:20:05.913Z,2.33
2022-08-19T16:23:08.168Z,2.30
2022-08-19T16:26:10.377Z,2.25
2022-08-19T16:29:13.815Z,2.20
2022-08-19T16:32:16.425Z,2.22
2022-08-19T16:35:18.612Z,2.57
2022-08-19T16:38:21.934Z,2.50
2022-08-19T16:41:24.559Z,2.15
2022-08-19T16:44:29.721Z,2.47
2022-08-19T16:47:32.251Z,2.28
2022-08-19T16:50:48.661Z,2.20
2022-08-19T16:53:54.006Z,2.50
2022-08-19T16:56:56.588Z,2.55
2022-08-19T16:59:59.075Z,2.75
2022-08-19T17:03:14.342Z,2.22
2022-08-19T17:06:26.109Z,2.70
2022-08-19T17:09:30.856Z,2.80
2022-08-19T17:12:35.130Z,2.53
2022-08-19T17:15:38.348Z,2.33
2022-08-19T17:18:40.586Z,2.10
2022-08-19T17:21:43.668Z,2.40
2022-08-19T17:24:46.229Z,2.80
2022-08-19T17:27:49.201Z,2.45
2022-08-19T17:30:52.213Z,2.28
2022-08-19T17:33:55.228Z,2.50
2022-08-19T17:36:58.507Z,2.60
2022-08-19T17:40:04.429Z,2.53
2022-08-19T17:43:08.380Z,2.42
2022-08-19T17:46:17.967Z,2.83
2022-08-19T17:49:21.628Z,3.13
2022-08-19T17:52:25.340Z,3.37
2022-08-19T17:55:30.408Z,3.50
2022-08-19T17:58:32.750Z,3.20
2022-08-19T18:01:52.180Z,3.40
2022-08-19T18:04:55.953Z,2.90
2022-08-19T18:07:59.885Z,3.23
2022-08-19T18:11:02.217Z,3.17
2022-08-19T18:14:05.365Z,2.60
2022-08-19T18:17:12.647Z,3.10
2022-08-19T18:20:16.795Z,2.97
2022-08-19T18:23:41.502Z,2.60
2022-08-19T18:26:42.870Z,2.60
2022-08-19T18:29:46.104Z,3.10
2022-08-19T18:32:52.489Z,2.75
2022-08-19T18:35:54.752Z,2.95
2022-08-19T18:39:15.843Z,3.17
2022-08-19T18:42:37.126Z,2.77
2022-08-19T18:45:59.167Z,3.13
2022-08-19T18:49:05.180Z,3.05
2022-08-19T18:52:07.689Z,3.55
2022-08-19T18:55:10.132Z,3.17
2022-08-19T18:58:12.331Z,3.57
2022-08-19T19:01:21.145Z,3.10
2022-08-19T19:04:29.857Z,3.22
2022-08-19T19:07:32.680Z,3.00
2022-08-19T19:10:36.321Z,3.63
2022-08-19T19:13:40.546Z,3.20
2022-08-19T19:16:46.141Z,3.90
2022-08-19T19:19:49.458Z,4.55
2022-08-19T19:22:52.035Z,3.90
2022-08-19T19:25:58.620Z,4.30
2022-08-19T19:29:00.915Z,4.07
2022-08-19T19:32:08.449Z,4.55
2022-08-19T19:35:10.846Z,4.18
2022-08-19T19:38:13.210Z,4.10
2022-08-19T19:41:17.889Z,3.73
2022-08-19T19:44:30.560Z,3.10
2022-08-19T19:47:33.770Z,3.00
2022-08-19T19:50:36.550Z,3.10
2022-08-19T19:53:39.149Z,2.95
2022-08-19T19:56:45.550Z,3.30
2022-08-19T19:59:51.460Z,3.27
2022-08-19T20:02:56.155Z,3.80
2022-08-19T20:05:59.416Z,4.50
2022-08-19T20:09:08.258Z,4.72
2022-08-19T20:12:10.514Z,5.00
2022-08-19T20:15:13.960Z,5.10
2022-08-19T20:18:16.162Z,4.07
2022-08-19T20:21:18.429Z,4.55
2022-08-19T20:24:34.840Z,4.50
2022-08-19T20:27:39.939Z,4.87
2022-08-19T20:30:47.968Z,5.43
2022-08-19T20:33:50.507Z,4.22
2022-08-19T20:36:52.869Z,4.70
2022-08-19T20:39:57.412Z,7.05
2022-08-19T20:42:59.991Z,8.00
2022-08-19T20:46:02.742Z,7.83
2022-08-19T20:49:05.889Z,8.50
2022-08-19T20:52:08.287Z,8.82
2022-08-19T20:55:11.578Z,9.57
2022-08-19T20:58:13.853Z,9.57
2022-08-19T21:01:16.483Z,10.50
2022-08-19T21:04:22.524Z,11.25
2022-08-19T21:07:24.790Z,11.82
2022-08-19T21:10:42.471Z,12.25
2022-08-19T21:13:44.787Z,12.00
2022-08-19T21:16:47.193Z,13.50
2022-08-19T21:19:49.456Z,12.43
2022-08-19T21:22:51.676Z,12.93
2022-08-19T21:25:57.129Z,13.02
2022-08-19T21:28:59.439Z,12.67
2022-08-19T21:32:01.681Z,14.40
2022-08-19T21:35:04.393Z,13.80
2022-08-19T21:38:06.624Z,13.55
2022-08-19T21:41:08.830Z,13.90
2022-08-19T21:44:11.128Z,14.33
2022-08-19T21:47:13.369Z,12.83
2022-08-19T21:50:15.711Z,13.73
2022-08-19T21:53:18.882Z,14.18
2022-08-19T21:56:21.485Z,13.32
2022-08-19T21:59:23.662Z,13.57
2022-08-19T22:02:26.150Z,12.80
2022-08-19T22:05:28.513Z,12.70
2022-08-19T22:08:31.390Z,12.57
2022-08-19T22:11:34.631Z,12.25
2022-08-19T22:14:38.121Z,12.10
2022-08-19T22:17:40.909Z,12.03
2022-08-19T22:20:44.733Z,13.10
2022-08-19T22:23:47.869Z,14.05
2022-08-19T22:26:51.586Z,13.55
2022-08-19T22:29:53.838Z,13.80
2022-08-19T22:33:01.417Z,13.83
2022-08-19T22:36:07.581Z,14.68
2022-08-19T22:39:09.981Z,16.05
2022-08-19T22:42:12.251Z,15.18
2022-08-19T22:45:17.129Z,15.40
2022-08-19T22:48:21.959Z,15.53
2022-08-19T22:51:42.946Z,17.55
2022-08-19T22:54:51.248Z,16.13
2022-08-19T22:57:54.434Z,15.80
2022-08-19T23:00:58.043Z,16.50
2022-08-19T23:04:00.303Z,16.07
2022-08-19T23:07:06.299Z,15.50
2022-08-19T23:10:10.168Z,15.80
2022-08-19T23:13:12.429Z,16.52
2022-08-19T23:16:14.664Z,15.23
2022-08-19T23:19:17.359Z,15.03
2022-08-19T23:22:19.663Z,14.18
2022-08-19T23:25:29.728Z,13.52
2022-08-19T23:28:50.128Z,13.80
2022-08-19T23:31:52.396Z,13.33
2022-08-19T23:34:56.418Z,13.47
2022-08-19T23:38:03.505Z,13.68
2022-08-19T23:41:08.630Z,13.85
2022-08-19T23:44:14.528Z,13.02
2022-08-19T23:47:17.396Z,13.83
2022-08-19T23:50:20.285Z,13.10
2022-08-19T23:53:23.196Z,13.57
2022-08-19T23:56:25.365Z,14.05
2022-08-19T23:59:27.578Z,14.43
